sensor_id;sensor_type;location;lat;lon;timestamp;temperature;humidity
46562;DHT22;32289;42.688;23.330;2022-12-10T00:00:06;8.40;99.90
46562;DHT22;32289;42.688;23.330;2022-12-10T00:03:47;8.50;99.90
46562;DHT22;32289;42.688;23.330;2022-12-10T00:07:27;8.50;99.90
46562;DHT22;32289;42.688;23.330;2022-12-10T00:11:10;8.30;99.90
46562;DHT22;32289;42.688;23.330;2022-12-10T00:14:50;8.40;99.90
46562;DHT22;32289;42.688;23.330;2022-12-10T00:18:32;8.30;99.90
46562;DHT22;32289;42.688;23.330;2022-12-10T00:22:12;8.40;99.90
46562;DHT22;32289;42.688;23.330;2022-12-10T00:25:53;8.40;99.90
46562;DHT22;32289;42.688;23.330;2022-12-10T00:29:33;8.40;99.90
46562;DHT22;32289;42.688;23.330;2022-12-10T00:33:14;8.40;99.90
46562;DHT22;32289;42.688;23.330;2022-12-10T00:36:55;8.40;99.90
46562;DHT22;32289;42.688;23.330;2022-12-10T00:40:35;8.50;99.90
46562;DHT22;32289;42.688;23.330;2022-12-10T00:44:16;8.40;99.90
46562;DHT22;32289;42.688;23.330;2022-12-10T00:47:57;8.50;99.90
46562;DHT22;32289;42.688;23.330;2022-12-10T00:51:38;8.50;99.90
46562;DHT22;32289;42.688;23.330;2022-12-10T00:55:18;8.60;99.90
46562;DHT22;32289;42.688;23.330;2022-12-10T00:59:00;8.60;99.90
46562;DHT22;32289;42.688;23.330;2022-12-10T01:02:41;8.80;99.90
46562;DHT22;32289;42.688;23.330;2022-12-10T01:06:30;8.80;99.90
46562;DHT22;32289;42.688;23.330;2022-12-10T01:10:11;8.80;99.90
46562;DHT22;32289;42.688;23.330;2022-12-10T01:13:52;8.80;99.90
46562;DHT22;32289;42.688;23.330;2022-12-10T01:17:33;8.80;99.90
46562;DHT22;32289;42.688;23.330;2022-12-10T01:21:17;8.70;99.90
46562;DHT22;32289;42.688;23.330;2022-12-10T01:24:58;8.80;99.90
46562;DHT22;32289;42.688;23.330;2022-12-10T01:28:39;8.70;99.90
46562;DHT22;32289;42.688;23.330;2022-12-10T01:32:21;8.70;99.90
46562;DHT22;32289;42.688;23.330;2022-12-10T01:36:10;8.70;99.90
46562;DHT22;32289;42.688;23.330;2022-12-10T01:39:51;8.70;99.90
46562;DHT22;32289;42.688;23.330;2022-12-10T01:43:52;8.80;99.90
46562;DHT22;32289;42.688;23.330;2022-12-10T01:47:33;8.90;99.90
46562;DHT22;32289;42.688;23.330;2022-12-10T01:51:15;8.90;99.90
46562;DHT22;32289;42.688;23.330;2022-12-10T01:54:56;9.00;99.90
46562;DHT22;32289;42.688;23.330;2022-12-10T01:58:37;9.00;99.90
46562;DHT22;32289;42.688;23.330;2022-12-10T02:02:49;9.00;99.90
46562;DHT22;32289;42.688;23.330;2022-12-10T02:19:01;8.90;99.90
46562;DHT22;32289;42.688;23.330;2022-12-10T02:23:00;8.90;99.90
46562;DHT22;32289;42.688;23.330;2022-12-10T02:26:51;9.00;99.90
46562;DHT22;32289;42.688;23.330;2022-12-10T02:30:33;8.90;99.90
46562;DHT22;32289;42.688;23.330;2022-12-10T02:34:16;8.80;99.90
46562;DHT22;32289;42.688;23.330;2022-12-10T02:38:12;8.80;99.90
46562;DHT22;32289;42.688;23.330;2022-12-10T02:41:54;8.80;99.90
46562;DHT22;32289;42.688;23.330;2022-12-10T02:45:35;8.90;99.90
46562;DHT22;32289;42.688;23.330;2022-12-10T02:49:17;8.90;99.90
46562;DHT22;32289;42.688;23.330;2022-12-10T02:52:58;8.80;99.90
46562;DHT22;32289;42.688;23.330;2022-12-10T02:56:43;8.70;99.90
46562;DHT22;32289;42.688;23.330;2022-12-10T03:00:26;8.70;99.90
46562;DHT22;32289;42.688;23.330;2022-12-10T03:04:23;8.80;99.90
46562;DHT22;32289;42.688;23.330;2022-12-10T03:11:57;8.90;99.90
46562;DHT22;32289;42.688;23.330;2022-12-10T03:15:41;8.90;99.90
46562;DHT22;32289;42.688;23.330;2022-12-10T03:19:28;8.80;99.90
46562;DHT22;32289;42.688;23.330;2022-12-10T03:23:15;8.80;99.90
46562;DHT22;32289;42.688;23.330;2022-12-10T03:26:57;8.80;99.90
46562;DHT22;32289;42.688;23.330;2022-12-10T03:30:39;8.80;99.90
46562;DHT22;32289;42.688;23.330;2022-12-10T03:34:22;8.90;99.90
46562;DHT22;32289;42.688;23.330;2022-12-10T03:38:03;9.00;99.90
46562;DHT22;32289;42.688;23.330;2022-12-10T03:41:44;8.90;99.90
46562;DHT22;32289;42.688;23.330;2022-12-10T03:45:24;8.90;99.90
46562;DHT22;32289;42.688;23.330;2022-12-10T03:49:05;8.90;99.90
46562;DHT22;32289;42.688;23.330;2022-12-10T03:52:46;9.00;99.90
46562;DHT22;32289;42.688;23.330;2022-12-10T03:56:26;9.00;99.90
46562;DHT22;32289;42.688;23.330;2022-12-10T04:00:07;9.00;99.90
46562;DHT22;32289;42.688;23.330;2022-12-10T04:03:48;9.20;99.90
46562;DHT22;32289;42.688;23.330;2022-12-10T04:07:30;9.20;99.90
46562;DHT22;32289;42.688;23.330;2022-12-10T04:11:12;9.20;99.90
46562;DHT22;32289;42.688;23.330;2022-12-10T04:14:53;9.20;99.90
46562;DHT22;32289;42.688;23.330;2022-12-10T04:18:54;9.10;99.90
46562;DHT22;32289;42.688;23.330;2022-12-10T04:22:34;9.20;99.90
46562;DHT22;32289;42.688;23.330;2022-12-10T04:26:33;9.20;99.90
46562;DHT22;32289;42.688;23.330;2022-12-10T04:30:32;9.10;99.90
46562;DHT22;32289;42.688;23.330;2022-12-10T04:34:13;9.10;99.90
46562;DHT22;32289;42.688;23.330;2022-12-10T04:37:54;9.20;99.90
46562;DHT22;32289;42.688;23.330;2022-12-10T04:41:34;9.10;99.90
46562;DHT22;32289;42.688;23.330;2022-12-10T04:45:15;8.90;99.90
46562;DHT22;32289;42.688;23.330;2022-12-10T04:48:56;8.90;99.90
46562;DHT22;32289;42.688;23.330;2022-12-10T04:52:36;9.00;99.90
46562;DHT22;32289;42.688;23.330;2022-12-10T04:56:17;9.00;99.90
46562;DHT22;32289;42.688;23.330;2022-12-10T04:59:57;9.00;99.90
46562;DHT22;32289;42.688;23.330;2022-12-10T05:03:39;9.00;99.90
46562;DHT22;32289;42.688;23.330;2022-12-10T05:07:19;9.10;99.90
46562;DHT22;32289;42.688;23.330;2022-12-10T05:11:06;9.00;99.90
46562;DHT22;32289;42.688;23.330;2022-12-10T05:14:47;9.00;99.90
46562;DHT22;32289;42.688;23.330;2022-12-10T05:18:27;8.90;99.90
46562;DHT22;32289;42.688;23.330;2022-12-10T05:22:09;9.00;99.90
46562;DHT22;32289;42.688;23.330;2022-12-10T05:26:11;9.00;99.90
46562;DHT22;32289;42.688;23.330;2022-12-10T05:29:53;9.00;99.90
46562;DHT22;32289;42.688;23.330;2022-12-10T05:33:33;8.90;99.90
46562;DHT22;32289;42.688;23.330;2022-12-10T05:37:14;8.90;99.90
46562;DHT22;32289;42.688;23.330;2022-12-10T05:40:54;9.00;99.90
46562;DHT22;32289;42.688;23.330;2022-12-10T05:44:35;9.00;99.90
46562;DHT22;32289;42.688;23.330;2022-12-10T05:48:16;9.00;99.90
46562;DHT22;32289;42.688;23.330;2022-12-10T05:51:57;9.00;99.90
46562;DHT22;32289;42.688;23.330;2022-12-10T05:55:39;8.90;99.90
46562;DHT22;32289;42.688;23.330;2022-12-10T05:59:20;9.00;99.90
46562;DHT22;32289;42.688;23.330;2022-12-10T06:03:01;9.00;99.90
46562;DHT22;32289;42.688;23.330;2022-12-10T06:06:41;9.00;99.90
46562;DHT22;32289;42.688;23.330;2022-12-10T06:10:22;9.00;99.90
46562;DHT22;32289;42.688;23.330;2022-12-10T06:14:03;9.10;99.90
46562;DHT22;32289;42.688;23.330;2022-12-10T06:17:43;9.10;99.90
46562;DHT22;32289;42.688;23.330;2022-12-10T06:21:24;9.10;99.90
46562;DHT22;32289;42.688;23.330;2022-12-10T06:25:05;9.20;99.90
46562;DHT22;32289;42.688;23.330;2022-12-10T06:28:47;9.20;99.90
46562;DHT22;32289;42.688;23.330;2022-12-10T06:32:28;9.20;99.90
46562;DHT22;32289;42.688;23.330;2022-12-10T06:36:11;9.20;99.90
46562;DHT22;32289;42.688;23.330;2022-12-10T06:39:52;9.20;99.90
46562;DHT22;32289;42.688;23.330;2022-12-10T06:43:33;9.20;99.90
46562;DHT22;32289;42.688;23.330;2022-12-10T06:47:13;9.20;99.90
46562;DHT22;32289;42.688;23.330;2022-12-10T06:50:55;9.20;99.90
46562;DHT22;32289;42.688;23.330;2022-12-10T06:54:36;9.20;99.90
46562;DHT22;32289;42.688;23.330;2022-12-10T06:58:17;9.30;99.90
46562;DHT22;32289;42.688;23.330;2022-12-10T07:01:57;9.50;99.90
46562;DHT22;32289;42.688;23.330;2022-12-10T07:05:38;9.60;99.90
46562;DHT22;32289;42.688;23.330;2022-12-10T07:09:19;9.40;99.90
46562;DHT22;32289;42.688;23.330;2022-12-10T07:12:59;9.50;99.90
46562;DHT22;32289;42.688;23.330;2022-12-10T07:16:41;9.50;99.90
46562;DHT22;32289;42.688;23.330;2022-12-10T07:20:21;9.70;99.90
46562;DHT22;32289;42.688;23.330;2022-12-10T07:24:14;9.70;99.90
46562;DHT22;32289;42.688;23.330;2022-12-10T07:27:55;9.60;99.90
46562;DHT22;32289;42.688;23.330;2022-12-10T07:31:36;9.60;99.90
46562;DHT22;32289;42.688;23.330;2022-12-10T07:35:17;9.60;99.90
46562;DHT22;32289;42.688;23.330;2022-12-10T07:38:57;9.80;99.90
46562;DHT22;32289;42.688;23.330;2022-12-10T07:42:38;9.80;99.90
46562;DHT22;32289;42.688;23.330;2022-12-10T07:46:22;9.80;99.90
46562;DHT22;32289;42.688;23.330;2022-12-10T07:50:03;9.80;99.90
46562;DHT22;32289;42.688;23.330;2022-12-10T07:53:44;9.90;99.90
46562;DHT22;32289;42.688;23.330;2022-12-10T07:57:25;10.30;99.90
46562;DHT22;32289;42.688;23.330;2022-12-10T08:01:07;10.20;99.90
46562;DHT22;32289;42.688;23.330;2022-12-10T08:04:48;10.20;99.90
46562;DHT22;32289;42.688;23.330;2022-12-10T08:08:28;10.20;99.90
46562;DHT22;32289;42.688;23.330;2022-12-10T08:12:09;10.20;99.90
46562;DHT22;32289;42.688;23.330;2022-12-10T08:15:50;10.30;99.90
46562;DHT22;32289;42.688;23.330;2022-12-10T08:19:30;10.20;99.90
46562;DHT22;32289;42.688;23.330;2022-12-10T08:23:11;10.40;99.90
46562;DHT22;32289;42.688;23.330;2022-12-10T08:26:52;10.40;99.90
46562;DHT22;32289;42.688;23.330;2022-12-10T08:30:32;10.50;99.90
46562;DHT22;32289;42.688;23.330;2022-12-10T08:34:15;10.30;99.90
46562;DHT22;32289;42.688;23.330;2022-12-10T08:37:56;10.50;99.90
46562;DHT22;32289;42.688;23.330;2022-12-10T08:41:37;10.60;99.90
46562;DHT22;32289;42.688;23.330;2022-12-10T08:45:19;10.50;99.90
46562;DHT22;32289;42.688;23.330;2022-12-10T08:48:59;10.50;99.90
46562;DHT22;32289;42.688;23.330;2022-12-10T08:52:40;10.90;99.90
46562;DHT22;32289;42.688;23.330;2022-12-10T08:56:21;11.00;99.90
46562;DHT22;32289;42.688;23.330;2022-12-10T09:00:03;11.20;99.90
46562;DHT22;32289;42.688;23.330;2022-12-10T09:03:44;11.40;99.90
46562;DHT22;32289;42.688;23.330;2022-12-10T09:07:25;11.60;99.90
46562;DHT22;32289;42.688;23.330;2022-12-10T09:11:12;11.40;99.90
46562;DHT22;32289;42.688;23.330;2022-12-10T09:14:53;11.70;99.90
46562;DHT22;32289;42.688;23.330;2022-12-10T09:18:35;11.60;99.90
46562;DHT22;32289;42.688;23.330;2022-12-10T09:22:15;11.40;99.90
46562;DHT22;32289;42.688;23.330;2022-12-10T09:25:56;11.80;99.90
46562;DHT22;32289;42.688;23.330;2022-12-10T09:29:37;11.70;99.90
46562;DHT22;32289;42.688;23.330;2022-12-10T09:33:17;11.80;99.90
46562;DHT22;32289;42.688;23.330;2022-12-10T09:36:58;12.10;99.90
46562;DHT22;32289;42.688;23.330;2022-12-10T09:40:45;12.30;99.90
46562;DHT22;32289;42.688;23.330;2022-12-10T09:45:01;13.30;99.90
46562;DHT22;32289;42.688;23.330;2022-12-10T09:48:52;12.80;99.90
46562;DHT22;32289;42.688;23.330;2022-12-10T09:52:42;13.40;99.90
46562;DHT22;32289;42.688;23.330;2022-12-10T09:56:33;13.90;99.90
46562;DHT22;32289;42.688;23.330;2022-12-10T10:04:03;13.30;99.90
46562;DHT22;32289;42.688;23.330;2022-12-10T10:07:48;15.70;99.90
46562;DHT22;32289;42.688;23.330;2022-12-10T10:11:32;15.20;99.90
46562;DHT22;32289;42.688;23.330;2022-12-10T10:15:16;14.40;99.90
46562;DHT22;32289;42.688;23.330;2022-12-10T10:19:16;14.40;99.90
46562;DHT22;32289;42.688;23.330;2022-12-10T10:22:59;15.00;99.90
46562;DHT22;32289;42.688;23.330;2022-12-10T10:26:40;14.60;99.90
46562;DHT22;32289;42.688;23.330;2022-12-10T10:30:23;14.10;99.90
46562;DHT22;32289;42.688;23.330;2022-12-10T10:34:11;14.60;99.90
46562;DHT22;32289;42.688;23.330;2022-12-10T10:38:20;14.20;99.90
46562;DHT22;32289;42.688;23.330;2022-12-10T10:42:07;13.90;99.90
46562;DHT22;32289;42.688;23.330;2022-12-10T10:45:59;14.00;99.90
46562;DHT22;32289;42.688;23.330;2022-12-10T10:49:44;14.40;99.90
46562;DHT22;32289;42.688;23.330;2022-12-10T10:53:31;14.90;99.90
46562;DHT22;32289;42.688;23.330;2022-12-10T11:01:02;15.10;99.90
46562;DHT22;32289;42.688;23.330;2022-12-10T11:04:52;14.60;99.90
46562;DHT22;32289;42.688;23.330;2022-12-10T11:08:33;14.60;99.90
46562;DHT22;32289;42.688;23.330;2022-12-10T11:12:37;14.20;99.90
46562;DHT22;32289;42.688;23.330;2022-12-10T11:16:21;14.20;99.90
46562;DHT22;32289;42.688;23.330;2022-12-10T11:20:19;14.50;99.90
46562;DHT22;32289;42.688;23.330;2022-12-10T11:24:10;14.60;99.90
46562;DHT22;32289;42.688;23.330;2022-12-10T11:40:01;14.60;99.90
46562;DHT22;32289;42.688;23.330;2022-12-10T11:48:06;14.60;99.90
46562;DHT22;32289;42.688;23.330;2022-12-10T11:52:16;14.80;99.90
46562;DHT22;32289;42.688;23.330;2022-12-10T11:56:11;14.80;99.90
46562;DHT22;32289;42.688;23.330;2022-12-10T12:00:05;14.60;99.90
46562;DHT22;32289;42.688;23.330;2022-12-10T12:12:08;14.50;99.90
46562;DHT22;32289;42.688;23.330;2022-12-10T12:19:49;14.50;99.90
46562;DHT22;32289;42.688;23.330;2022-12-10T12:27:28;14.20;99.90
46562;DHT22;32289;42.688;23.330;2022-12-10T12:31:18;14.30;99.90
46562;DHT22;32289;42.688;23.330;2022-12-10T12:35:20;14.30;99.90
46562;DHT22;32289;42.688;23.330;2022-12-10T12:40:02;14.30;99.90
46562;DHT22;32289;42.688;23.330;2022-12-10T12:51:05;14.30;99.90
46562;DHT22;32289;42.688;23.330;2022-12-10T12:54:47;14.20;99.90
46562;DHT22;32289;42.688;23.330;2022-12-10T13:06:29;14.20;99.90
46562;DHT22;32289;42.688;23.330;2022-12-10T13:14:15;14.10;99.90
46562;DHT22;32289;42.688;23.330;2022-12-10T13:18:20;14.00;99.90
46562;DHT22;32289;42.688;23.330;2022-12-10T13:22:02;14.00;99.90
46562;DHT22;32289;42.688;23.330;2022-12-10T13:29:46;13.90;99.90
46562;DHT22;32289;42.688;23.330;2022-12-10T13:46:34;13.80;99.90
46562;DHT22;32289;42.688;23.330;2022-12-10T13:50:17;13.70;99.90
46562;DHT22;32289;42.688;23.330;2022-12-10T14:06:26;13.80;99.90
46562;DHT22;32289;42.688;23.330;2022-12-10T14:10:13;13.60;99.90
46562;DHT22;32289;42.688;23.330;2022-12-10T14:13:57;13.60;99.90
46562;DHT22;32289;42.688;23.330;2022-12-10T14:17:41;13.60;99.90
46562;DHT22;32289;42.688;23.330;2022-12-10T14:21:23;13.50;99.90
46562;DHT22;32289;42.688;23.330;2022-12-10T14:25:14;13.50;99.90
46562;DHT22;32289;42.688;23.330;2022-12-10T14:29:00;13.50;99.90
46562;DHT22;32289;42.688;23.330;2022-12-10T14:32:42;13.40;99.90
46562;DHT22;32289;42.688;23.330;2022-12-10T14:36:48;13.40;99.90
46562;DHT22;32289;42.688;23.330;2022-12-10T14:40:41;13.30;99.90
46562;DHT22;32289;42.688;23.330;2022-12-10T14:44:22;13.20;99.90
46562;DHT22;32289;42.688;23.330;2022-12-10T14:48:04;13.20;99.90
46562;DHT22;32289;42.688;23.330;2022-12-10T14:51:49;13.20;99.90
46562;DHT22;32289;42.688;23.330;2022-12-10T14:55:30;13.10;99.90
46562;DHT22;32289;42.688;23.330;2022-12-10T14:59:14;13.10;99.90
46562;DHT22;32289;42.688;23.330;2022-12-10T15:03:01;13.10;99.90
46562;DHT22;32289;42.688;23.330;2022-12-10T15:06:43;13.10;99.90
46562;DHT22;32289;42.688;23.330;2022-12-10T15:10:36;13.10;99.90
46562;DHT22;32289;42.688;23.330;2022-12-10T15:14:19;13.10;99.90
46562;DHT22;32289;42.688;23.330;2022-12-10T15:21:48;13.00;99.90
46562;DHT22;32289;42.688;23.330;2022-12-10T15:25:29;12.90;99.90
46562;DHT22;32289;42.688;23.330;2022-12-10T15:33:03;12.90;99.90
46562;DHT22;32289;42.688;23.330;2022-12-10T15:36:49;12.90;99.90
46562;DHT22;32289;42.688;23.330;2022-12-10T15:40:30;12.80;99.90
46562;DHT22;32289;42.688;23.330;2022-12-10T15:44:39;12.90;99.90
46562;DHT22;32289;42.688;23.330;2022-12-10T15:48:20;12.70;99.90
46562;DHT22;32289;42.688;23.330;2022-12-10T15:52:03;12.80;99.90
46562;DHT22;32289;42.688;23.330;2022-12-10T15:55:44;12.70;99.90
46562;DHT22;32289;42.688;23.330;2022-12-10T15:59:24;12.60;99.90
46562;DHT22;32289;42.688;23.330;2022-12-10T16:03:09;12.60;99.90
46562;DHT22;32289;42.688;23.330;2022-12-10T16:06:51;12.60;99.90
46562;DHT22;32289;42.688;23.330;2022-12-10T16:10:32;12.60;99.90
46562;DHT22;32289;42.688;23.330;2022-12-10T16:14:13;12.60;99.90
46562;DHT22;32289;42.688;23.330;2022-12-10T16:17:55;12.60;99.90
46562;DHT22;32289;42.688;23.330;2022-12-10T16:21:38;12.50;99.90
46562;DHT22;32289;42.688;23.330;2022-12-10T16:25:19;12.40;99.90
46562;DHT22;32289;42.688;23.330;2022-12-10T16:29:00;12.30;99.90
46562;DHT22;32289;42.688;23.330;2022-12-10T16:32:41;12.30;99.90
46562;DHT22;32289;42.688;23.330;2022-12-10T16:36:22;12.20;99.90
46562;DHT22;32289;42.688;23.330;2022-12-10T16:40:03;12.30;99.90
46562;DHT22;32289;42.688;23.330;2022-12-10T16:43:44;12.30;99.90
46562;DHT22;32289;42.688;23.330;2022-12-10T16:47:25;12.20;99.90
46562;DHT22;32289;42.688;23.330;2022-12-10T16:55:03;12.20;99.90
46562;DHT22;32289;42.688;23.330;2022-12-10T16:58:44;12.20;99.90
46562;DHT22;32289;42.688;23.330;2022-12-10T17:02:25;12.10;99.90
46562;DHT22;32289;42.688;23.330;2022-12-10T17:06:09;12.10;99.90
46562;DHT22;32289;42.688;23.330;2022-12-10T17:09:51;12.10;99.90
46562;DHT22;32289;42.688;23.330;2022-12-10T17:13:32;12.10;99.90
46562;DHT22;32289;42.688;23.330;2022-12-10T17:17:14;12.00;99.90
46562;DHT22;32289;42.688;23.330;2022-12-10T17:20:55;11.90;99.90
46562;DHT22;32289;42.688;23.330;2022-12-10T17:24:37;11.70;99.90
46562;DHT22;32289;42.688;23.330;2022-12-10T17:28:20;11.50;99.90
46562;DHT22;32289;42.688;23.330;2022-12-10T17:32:02;11.40;99.90
46562;DHT22;32289;42.688;23.330;2022-12-10T17:35:44;11.30;99.90
46562;DHT22;32289;42.688;23.330;2022-12-10T17:39:25;11.30;99.90
46562;DHT22;32289;42.688;23.330;2022-12-10T17:43:08;11.20;99.90
46562;DHT22;32289;42.688;23.330;2022-12-10T17:46:49;11.20;99.90
46562;DHT22;32289;42.688;23.330;2022-12-10T17:50:33;11.20;99.90
46562;DHT22;32289;42.688;23.330;2022-12-10T17:54:13;11.30;99.90
46562;DHT22;32289;42.688;23.330;2022-12-10T17:57:55;11.40;99.90
46562;DHT22;32289;42.688;23.330;2022-12-10T18:01:38;11.40;99.90
46562;DHT22;32289;42.688;23.330;2022-12-10T18:05:19;11.50;99.90
46562;DHT22;32289;42.688;23.330;2022-12-10T18:09:01;11.50;99.90
46562;DHT22;32289;42.688;23.330;2022-12-10T18:12:42;11.50;99.90
46562;DHT22;32289;42.688;23.330;2022-12-10T18:16:26;11.40;99.90
46562;DHT22;32289;42.688;23.330;2022-12-10T18:20:21;11.30;99.90
46562;DHT22;32289;42.688;23.330;2022-12-10T18:24:03;11.40;99.90
46562;DHT22;32289;42.688;23.330;2022-12-10T18:27:43;11.40;99.90
46562;DHT22;32289;42.688;23.330;2022-12-10T18:31:27;11.40;99.90
46562;DHT22;32289;42.688;23.330;2022-12-10T18:35:11;11.50;99.90
46562;DHT22;32289;42.688;23.330;2022-12-10T18:38:59;11.40;99.90
46562;DHT22;32289;42.688;23.330;2022-12-10T18:42:40;11.30;99.90
46562;DHT22;32289;42.688;23.330;2022-12-10T18:46:23;11.40;99.90
46562;DHT22;32289;42.688;23.330;2022-12-10T18:50:19;11.40;99.90
46562;DHT22;32289;42.688;23.330;2022-12-10T18:54:00;11.40;99.90
46562;DHT22;32289;42.688;23.330;2022-12-10T18:57:41;11.40;99.90
46562;DHT22;32289;42.688;23.330;2022-12-10T19:01:22;11.50;99.90
46562;DHT22;32289;42.688;23.330;2022-12-10T19:05:04;11.40;99.90
46562;DHT22;32289;42.688;23.330;2022-12-10T19:08:47;11.40;99.90
46562;DHT22;32289;42.688;23.330;2022-12-10T19:12:28;11.30;99.90
46562;DHT22;32289;42.688;23.330;2022-12-10T19:16:13;11.30;99.90
46562;DHT22;32289;42.688;23.330;2022-12-10T19:19:54;11.30;99.90
46562;DHT22;32289;42.688;23.330;2022-12-10T19:23:35;11.20;99.90
46562;DHT22;32289;42.688;23.330;2022-12-10T19:27:16;11.40;99.90
46562;DHT22;32289;42.688;23.330;2022-12-10T19:30:56;11.40;99.90
46562;DHT22;32289;42.688;23.330;2022-12-10T19:34:37;11.30;99.90
46562;DHT22;32289;42.688;23.330;2022-12-10T19:38:18;11.20;99.90
46562;DHT22;32289;42.688;23.330;2022-12-10T19:41:58;11.20;99.90
46562;DHT22;32289;42.688;23.330;2022-12-10T19:45:39;11.30;99.90
46562;DHT22;32289;42.688;23.330;2022-12-10T19:49:22;11.20;99.90
46562;DHT22;32289;42.688;23.330;2022-12-10T19:53:04;11.20;99.90
46562;DHT22;32289;42.688;23.330;2022-12-10T19:56:45;11.20;99.90
46562;DHT22;32289;42.688;23.330;2022-12-10T20:00:29;11.10;99.90
46562;DHT22;32289;42.688;23.330;2022-12-10T20:04:12;11.20;99.90
46562;DHT22;32289;42.688;23.330;2022-12-10T20:07:53;11.20;99.90
46562;DHT22;32289;42.688;23.330;2022-12-10T20:11:33;11.20;99.90
46562;DHT22;32289;42.688;23.330;2022-12-10T20:15:14;11.10;99.90
46562;DHT22;32289;42.688;23.330;2022-12-10T20:18:56;11.20;99.90
46562;DHT22;32289;42.688;23.330;2022-12-10T20:22:37;11.10;99.90
46562;DHT22;32289;42.688;23.330;2022-12-10T20:26:40;11.00;99.90
46562;DHT22;32289;42.688;23.330;2022-12-10T20:30:26;11.20;99.90
46562;DHT22;32289;42.688;23.330;2022-12-10T20:34:08;11.10;99.90
46562;DHT22;32289;42.688;23.330;2022-12-10T20:37:53;11.00;99.90
46562;DHT22;32289;42.688;23.330;2022-12-10T20:41:33;11.10;99.90
46562;DHT22;32289;42.688;23.330;2022-12-10T20:45:14;11.00;99.90
46562;DHT22;32289;42.688;23.330;2022-12-10T20:48:55;11.00;99.90
46562;DHT22;32289;42.688;23.330;2022-12-10T20:52:37;10.90;99.90
46562;DHT22;32289;42.688;23.330;2022-12-10T20:56:21;10.90;99.90
46562;DHT22;32289;42.688;23.330;2022-12-10T21:00:08;10.90;99.90
46562;DHT22;32289;42.688;23.330;2022-12-10T21:03:49;10.90;99.90
46562;DHT22;32289;42.688;23.330;2022-12-10T21:07:30;10.80;99.90
46562;DHT22;32289;42.688;23.330;2022-12-10T21:11:11;10.60;99.90
46562;DHT22;32289;42.688;23.330;2022-12-10T21:14:52;10.70;99.90
46562;DHT22;32289;42.688;23.330;2022-12-10T21:18:32;10.70;99.90
46562;DHT22;32289;42.688;23.330;2022-12-10T21:22:14;10.80;99.90
46562;DHT22;32289;42.688;23.330;2022-12-10T21:25:56;10.80;99.90
46562;DHT22;32289;42.688;23.330;2022-12-10T21:29:37;10.90;99.90
46562;DHT22;32289;42.688;23.330;2022-12-10T21:33:21;10.80;99.90
46562;DHT22;32289;42.688;23.330;2022-12-10T21:37:01;10.80;99.90
46562;DHT22;32289;42.688;23.330;2022-12-10T21:40:44;10.90;99.90
46562;DHT22;32289;42.688;23.330;2022-12-10T21:44:24;10.80;99.90
46562;DHT22;32289;42.688;23.330;2022-12-10T21:48:05;10.80;99.90
46562;DHT22;32289;42.688;23.330;2022-12-10T21:51:46;10.70;99.90
46562;DHT22;32289;42.688;23.330;2022-12-10T21:55:27;10.80;99.90
46562;DHT22;32289;42.688;23.330;2022-12-10T21:59:07;10.70;99.90
46562;DHT22;32289;42.688;23.330;2022-12-10T22:02:48;10.60;99.90
46562;DHT22;32289;42.688;23.330;2022-12-10T22:06:29;10.70;99.90
46562;DHT22;32289;42.688;23.330;2022-12-10T22:10:13;10.70;99.90
46562;DHT22;32289;42.688;23.330;2022-12-10T22:13:55;10.70;99.90
46562;DHT22;32289;42.688;23.330;2022-12-10T22:17:35;10.60;99.90
46562;DHT22;32289;42.688;23.330;2022-12-10T22:21:16;10.60;99.90
46562;DHT22;32289;42.688;23.330;2022-12-10T22:25:02;10.70;99.90
46562;DHT22;32289;42.688;23.330;2022-12-10T22:28:43;10.70;99.90
46562;DHT22;32289;42.688;23.330;2022-12-10T22:32:24;10.70;99.90
46562;DHT22;32289;42.688;23.330;2022-12-10T22:36:06;10.70;99.90
46562;DHT22;32289;42.688;23.330;2022-12-10T22:39:47;10.70;99.90
46562;DHT22;32289;42.688;23.330;2022-12-10T22:43:28;10.70;99.90
46562;DHT22;32289;42.688;23.330;2022-12-10T22:47:10;10.60;99.90
46562;DHT22;32289;42.688;23.330;2022-12-10T22:50:59;10.70;99.90
46562;DHT22;32289;42.688;23.330;2022-12-10T22:54:40;10.70;99.90
46562;DHT22;32289;42.688;23.330;2022-12-10T22:58:21;10.70;99.90
46562;DHT22;32289;42.688;23.330;2022-12-10T23:02:02;10.80;99.90
46562;DHT22;32289;42.688;23.330;2022-12-10T23:05:45;10.70;99.90
46562;DHT22;32289;42.688;23.330;2022-12-10T23:09:26;10.70;99.90
46562;DHT22;32289;42.688;23.330;2022-12-10T23:13:07;10.70;99.90
46562;DHT22;32289;42.688;23.330;2022-12-10T23:16:50;10.70;99.90
46562;DHT22;32289;42.688;23.330;2022-12-10T23:20:31;10.70;99.90
46562;DHT22;32289;42.688;23.330;2022-12-10T23:24:12;10.60;99.90
46562;DHT22;32289;42.688;23.330;2022-12-10T23:27:53;10.60;99.90
46562;DHT22;32289;42.688;23.330;2022-12-10T23:31:34;10.60;99.90
46562;DHT22;32289;42.688;23.330;2022-12-10T23:35:15;10.60;99.90
46562;DHT22;32289;42.688;23.330;2022-12-10T23:38:55;10.60;99.90
46562;DHT22;32289;42.688;23.330;2022-12-10T23:42:36;10.60;99.90
46562;DHT22;32289;42.688;23.330;2022-12-10T23:46:17;10.60;99.90
46562;DHT22;32289;42.688;23.330;2022-12-10T23:49:58;10.60;99.90
46562;DHT22;32289;42.688;23.330;2022-12-10T23:53:38;10.70;99.90
46562;DHT22;32289;42.688;23.330;2022-12-10T23:57:19;10.80;99.90
